Time;durP1;ratioP1;P1;durP2;ratioP2;P2;SDS_P1;SDS_P2;PMS_P1;PMS_P2;Temp;Humidity;BMP_temperature;BMP_pressure;BME280_temperature;BME280_humidity;BME280_pressure;Samples;Min_cycle;Max_cycle;Signal;HPM_P1;HPM_P2
2023/12/30 00:04:51;;;;;;;2.72;2.22;;;;;;;-4.22;96.28;98907.44;10423170;28;20052;-67
2023/12/30 00:09:53;;;;;;;3.58;1.98;;;;;;;-4.22;96.58;98907.44;10425068;28;20516;-67
2023/12/30 00:14:55;;;;;;;3.63;2.00;;;;;;;-4.29;96.54;98904.88;10410805;28;20041;-66
2023/12/30 00:19:58;;;;;;;5.10;2.53;;;;;;;-4.26;96.63;98911.63;10413177;28;20037;-66
2023/12/30 00:25:01;;;;;;;3.25;1.90;;;;;;;-4.30;97.06;98907.78;10437355;28;20544;-67
2023/12/30 00:30:04;;;;;;;2.08;1.67;;;;;;;-4.26;97.07;98920.47;10430173;28;20037;-67
2023/12/30 00:35:07;;;;;;;3.92;2.17;;;;;;;-4.28;96.92;98905.69;10407196;28;20056;-66
2023/12/30 00:40:11;;;;;;;2.80;2.50;;;;;;;-4.25;97.40;98932.00;10419736;28;20053;-67
2023/12/30 00:45:13;;;;;;;3.97;2.60;;;;;;;-4.26;97.67;98933.03;10417813;28;20045;-65
2023/12/30 00:50:16;;;;;;;2.95;2.05;;;;;;;-4.31;97.04;98932.91;10428626;28;20029;-66
2023/12/30 00:55:18;;;;;;;4.50;2.17;;;;;;;-4.26;97.75;98927.69;10418325;28;20514;-66
2023/12/30 01:00:20;;;;;;;2.38;1.80;;;;;;;-4.26;97.42;98923.16;10420685;28;20048;-67
2023/12/30 01:05:23;;;;;;;2.40;1.70;;;;;;;-4.23;96.70;98929.91;10411650;28;20038;-66
2023/12/30 01:10:25;;;;;;;3.38;2.00;;;;;;;-4.30;96.73;98935.38;10418068;28;20040;-66
2023/12/30 01:15:27;;;;;;;3.13;2.00;;;;;;;-4.26;96.98;98941.09;10395400;28;20056;-67
2023/12/30 01:20:30;;;;;;;2.45;2.00;;;;;;;-4.25;96.83;98930.13;10433228;28;20044;-67
2023/12/30 01:25:33;;;;;;;5.90;2.17;;;;;;;-4.29;96.99;98946.91;10419183;28;20041;-65
2023/12/30 01:30:36;;;;;;;2.20;1.73;;;;;;;-4.22;96.61;98947.59;10415836;28;20049;-67
2023/12/30 01:35:40;;;;;;;3.85;1.95;;;;;;;-4.32;96.62;98952.72;10428172;28;20045;-66
2023/12/30 01:40:43;;;;;;;2.95;1.98;;;;;;;-4.32;96.37;98958.06;10442771;28;20029;-66
2023/12/30 01:45:46;;;;;;;1.40;1.25;;;;;;;-4.32;96.74;98958.88;10429493;28;20060;-66
2023/12/30 01:50:50;;;;;;;3.25;1.60;;;;;;;-4.24;96.08;98955.06;10436596;28;20049;-66
2023/12/30 01:55:52;;;;;;;3.30;1.70;;;;;;;-4.25;96.48;98948.06;10443504;28;20504;-66
2023/12/30 02:00:55;;;;;;;5.13;1.90;;;;;;;-4.22;96.39;98952.16;10432933;28;20421;-66
2023/12/30 02:05:58;;;;;;;3.30;1.80;;;;;;;-4.26;96.05;98955.28;10429014;28;20041;-66
2023/12/30 02:11:03;;;;;;;2.22;1.55;;;;;;;-4.22;95.87;98954.81;10443455;28;20052;-66
2023/12/30 02:16:05;;;;;;;5.20;1.85;;;;;;;-4.21;95.68;98980.56;10437634;28;20060;-65
2023/12/30 02:21:08;;;;;;;3.17;1.90;;;;;;;-4.24;95.45;98971.13;10432544;28;20038;-66
2023/12/30 02:26:10;;;;;;;3.03;2.03;;;;;;;-4.28;95.27;98973.44;10433655;28;20670;-65
2023/12/30 02:31:12;;;;;;;3.33;1.92;;;;;;;-4.33;95.43;98959.09;10441256;28;20041;-66
2023/12/30 02:36:15;;;;;;;4.55;2.00;;;;;;;-4.31;95.97;98951.66;10417772;28;20429;-66
2023/12/30 02:41:18;;;;;;;2.47;1.45;;;;;;;-4.33;95.49;98961.78;10427784;28;20072;-66
2023/12/30 02:46:20;;;;;;;2.47;1.70;;;;;;;-4.38;95.79;98966.97;10438416;28;20048;-67
2023/12/30 02:51:23;;;;;;;2.72;1.55;;;;;;;-4.34;95.47;98979.72;10443673;28;20037;-67
2023/12/30 02:56:26;;;;;;;2.58;1.55;;;;;;;-4.38;95.62;98980.38;10443124;28;20041;-66
2023/12/30 03:01:31;;;;;;;3.70;1.80;;;;;;;-4.44;95.46;98991.97;10444104;28;20412;-67
2023/12/30 03:06:34;;;;;;;1.83;1.60;;;;;;;-4.47;95.24;99001.28;10428040;28;20041;-66
2023/12/30 03:11:36;;;;;;;2.25;1.40;;;;;;;-4.45;95.58;98996.53;10439794;28;20029;-66
2023/12/30 03:16:40;;;;;;;2.05;1.45;;;;;;;-4.43;95.62;99001.66;10423240;28;20417;-66
2023/12/30 03:21:44;;;;;;;2.45;1.50;;;;;;;-4.45;95.40;99001.06;10403843;28;20726;-66
2023/12/30 03:26:50;;;;;;;4.45;2.55;;;;;;;-4.42;95.25;98982.69;10432215;28;20041;-66
2023/12/30 03:31:54;;;;;;;2.47;1.35;;;;;;;-4.35;95.63;98990.63;10413641;28;20037;-66
2023/12/30 03:36:57;;;;;;;3.88;1.75;;;;;;;-4.45;95.17;98990.34;10437166;28;20033;-67
2023/12/30 03:42:00;;;;;;;2.67;1.75;;;;;;;-4.43;95.76;99005.13;10436325;28;20532;-66
2023/12/30 03:47:03;;;;;;;1.75;1.40;;;;;;;-4.45;95.40;99011.75;10425292;28;20081;-68
2023/12/30 03:52:05;;;;;;;2.65;1.40;;;;;;;-4.40;95.66;99014.56;10420648;28;20040;-67
2023/12/30 03:57:07;;;;;;;2.20;1.52;;;;;;;-4.40;95.82;99014.56;10430794;28;20048;-66
2023/12/30 04:02:10;;;;;;;1.92;1.40;;;;;;;-4.43;95.59;99020.38;10427885;28;20088;-67
2023/12/30 04:07:12;;;;;;;1.70;1.35;;;;;;;-4.43;96.21;99010.50;10424581;28;20076;-67
2023/12/30 04:12:16;;;;;;;3.85;1.50;;;;;;;-4.37;95.90;99022.16;10431431;28;20068;-66
2023/12/30 04:17:18;;;;;;;3.30;1.40;;;;;;;-4.35;95.49;99022.75;10415768;28;20125;-66
2023/12/30 04:22:21;;;;;;;2.80;1.80;;;;;;;-4.30;95.55;99020.25;10388261;28;20046;-67
2023/12/30 04:27:23;;;;;;;1.10;0.95;;;;;;;-4.45;96.40;99027.81;10422691;28;20045;-67
2023/12/30 04:32:26;;;;;;;2.22;1.67;;;;;;;-4.41;96.82;99032.50;10429706;28;20041;-66
2023/12/30 04:37:28;;;;;;;3.22;1.42;;;;;;;-4.38;96.99;99036.59;10398410;28;20065;-66
2023/12/30 04:42:30;;;;;;;2.30;1.33;;;;;;;-4.42;96.79;99025.50;10423448;28;20041;-65
2023/12/30 04:47:33;;;;;;;1.10;1.00;;;;;;;-4.41;97.41;99023.66;10427008;28;20048;-66
2023/12/30 04:52:35;;;;;;;2.53;1.58;;;;;;;-4.44;97.55;99035.63;10423796;28;20045;-69
2023/12/30 04:57:38;;;;;;;1.70;1.30;;;;;;;-4.47;97.35;99052.16;10428306;28;20052;-66
2023/12/30 05:02:40;;;;;;;4.15;1.08;;;;;;;-4.40;97.36;99036.00;10427314;28;20550;-66
2023/12/30 05:07:42;;;;;;;1.45;1.20;;;;;;;-4.44;98.10;99042.84;10432619;28;20037;-67
2023/12/30 05:12:46;;;;;;;2.25;1.30;;;;;;;-4.47;97.54;99056.69;10441223;28;20037;-67
2023/12/30 05:17:49;;;;;;;1.90;1.50;;;;;;;-4.52;98.16;99057.31;10439216;28;20045;-66
2023/12/30 05:22:52;;;;;;;1.75;1.27;;;;;;;-4.52;98.12;99065.34;10434987;28;20072;-66
2023/12/30 05:27:55;;;;;;;2.08;1.50;;;;;;;-4.54;97.94;99062.09;10428919;28;20033;-67
2023/12/30 05:32:57;;;;;;;2.50;1.38;;;;;;;-4.57;98.16;99066.03;10438952;28;20038;-67
2023/12/30 05:37:59;;;;;;;1.90;1.50;;;;;;;-4.58;97.90;99072.44;10420693;28;20040;-67
2023/12/30 05:43:02;;;;;;;1.85;1.50;;;;;;;-4.60;97.56;99079.84;10426471;28;20049;-67
2023/12/30 05:48:05;;;;;;;4.20;1.50;;;;;;;-4.60;97.33;99087.06;10425805;28;20052;-67
2023/12/30 05:53:07;;;;;;;1.67;1.20;;;;;;;-4.73;97.59;99093.34;10431606;28;20414;-67
2023/12/30 05:58:09;;;;;;;3.00;1.58;;;;;;;-4.71;97.91;99098.50;10436440;28;20033;-67
2023/12/30 06:03:13;;;;;;;2.17;1.17;;;;;;;-4.70;97.68;99092.91;10434734;28;20041;-67
2023/12/30 06:08:15;;;;;;;1.40;1.30;;;;;;;-4.76;97.78;99112.53;10439788;28;20052;-67
2023/12/30 06:13:17;;;;;;;4.75;1.20;;;;;;;-4.75;97.59;99116.84;10424653;28;20053;-67
2023/12/30 06:18:19;;;;;;;2.03;1.42;;;;;;;-4.74;98.11;99121.16;10407084;28;20041;-67
2023/12/30 06:23:22;;;;;;;1.45;1.30;;;;;;;-4.79;98.17;99117.50;10422777;28;20046;-67
2023/12/30 06:28:26;;;;;;;2.40;1.52;;;;;;;-4.79;98.18;99142.41;10416060;28;20653;-67
2023/12/30 06:33:28;;;;;;;2.50;1.55;;;;;;;-4.78;98.53;99146.72;10439496;28;20041;-67
2023/12/30 06:38:31;;;;;;;2.28;1.20;;;;;;;-4.82;98.00;99129.47;10429769;28;20042;-66
2023/12/30 06:43:34;;;;;;;2.35;1.65;;;;;;;-4.77;98.22;99123.47;10412226;28;20048;-66
2023/12/30 06:48:37;;;;;;;1.40;1.20;;;;;;;-4.73;98.03;99138.84;10437477;28;20508;-67
2023/12/30 06:53:39;;;;;;;2.35;1.50;;;;;;;-4.69;97.53;99137.38;10416710;28;20049;-67
2023/12/30 06:58:45;;;;;;;2.40;1.48;;;;;;;-4.78;97.41;99141.38;10404129;28;20034;-66
2023/12/30 07:03:48;;;;;;;0.85;0.68;;;;;;;-4.73;97.30;99140.72;10425859;28;20033;-67
2023/12/30 07:08:51;;;;;;;2.15;1.50;;;;;;;-4.83;97.02;99146.56;10426247;28;20038;-67
2023/12/30 07:13:55;;;;;;;3.15;1.70;;;;;;;-4.82;97.19;99142.84;10418398;28;20038;-65
2023/12/30 07:18:57;;;;;;;1.55;1.38;;;;;;;-4.79;97.57;99144.28;10434576;28;20044;-66
2023/12/30 07:23:59;;;;;;;3.10;2.25;;;;;;;-4.82;97.59;99156.22;10440134;28;20056;-67
2023/12/30 07:29:01;;;;;;;1.77;1.58;;;;;;;-4.89;97.14;99163.47;10442015;28;20037;-67
2023/12/30 07:34:04;;;;;;;3.45;1.50;;;;;;;-4.88;97.61;99175.81;10442449;28;20432;-67
2023/12/30 07:39:06;;;;;;;2.85;1.90;;;;;;;-4.85;97.25;99172.72;10436032;28;20034;-66
2023/12/30 07:44:08;;;;;;;2.03;1.50;;;;;;;-4.88;97.37;99170.47;10436964;28;20048;-65
2023/12/30 07:49:11;;;;;;;2.55;1.13;;;;;;;-4.85;97.09;99178.06;10425167;28;20045;-65
2023/12/30 07:54:13;;;;;;;2.33;1.38;;;;;;;-4.87;98.27;99185.47;10437439;28;20063;-66
2023/12/30 07:59:16;;;;;;;3.22;1.35;;;;;;;-4.96;98.34;99194.81;10420744;28;20409;-66
2023/12/30 08:04:19;;;;;;;1.48;1.33;;;;;;;-4.97;98.27;99190.50;10426973;28;20053;-66
2023/12/30 08:09:22;;;;;;;1.63;1.13;;;;;;;-4.94;98.78;99193.56;10438162;28;20528;-66
2023/12/30 08:14:24;;;;;;;1.05;0.80;;;;;;;-4.97;98.84;99203.88;10418244;28;20053;-67
2023/12/30 08:19:27;;;;;;;2.20;1.15;;;;;;;-4.97;98.42;99203.88;10442043;28;20034;-66
2023/12/30 08:24:29;;;;;;;1.50;0.82;;;;;;;-4.91;98.42;99189.63;10436240;28;20551;-68
2023/12/30 08:29:31;;;;;;;1.50;1.20;;;;;;;-4.99;97.49;99189.91;10439231;28;20044;-67
2023/12/30 08:34:34;;;;;;;1.25;1.08;;;;;;;-5.01;97.18;99194.66;10424329;28;20052;-67
2023/12/30 08:39:37;;;;;;;1.17;0.90;;;;;;;-4.91;97.54;99192.28;10439660;28;20033;-67
2023/12/30 08:44:43;;;;;;;1.33;0.70;;;;;;;-4.92;97.19;99236.13;10443540;28;20053;-67
2023/12/30 08:49:45;;;;;;;1.02;0.68;;;;;;;-4.99;97.15;99214.78;10436619;28;20037;-67
2023/12/30 08:54:48;;;;;;;1.83;1.10;;;;;;;-5.00;97.52;99202.44;10439782;28;20033;-67
2023/12/30 08:59:51;;;;;;;0.60;0.55;;;;;;;-4.97;97.15;99215.38;10429219;28;20045;-67
2023/12/30 09:04:56;;;;;;;1.25;0.80;;;;;;;-5.02;97.39;99225.94;10436547;28;20053;-66
2023/12/30 09:09:58;;;;;;;1.05;0.88;;;;;;;-4.97;97.36;99222.59;10438921;28;20042;-66
2023/12/30 09:15:01;;;;;;;0.95;0.63;;;;;;;-4.98;97.61;99239.69;10444755;28;20040;-66
2023/12/30 09:20:05;;;;;;;3.63;1.33;;;;;;;-5.02;97.10;99230.44;10442488;28;20498;-66
2023/12/30 09:25:08;;;;;;;1.65;1.30;;;;;;;-4.96;97.03;99235.75;10442791;28;20041;-65
2023/12/30 09:30:10;;;;;;;0.95;0.90;;;;;;;-4.97;96.69;99241.31;10433144;28;20033;-65
2023/12/30 09:35:14;;;;;;;3.22;1.80;;;;;;;-5.00;95.92;99258.63;10446314;28;20029;-65
2023/12/30 09:40:17;;;;;;;2.63;1.52;;;;;;;-4.92;96.63;99244.16;10443544;28;20033;-67
2023/12/30 09:45:22;;;;;;;2.53;1.40;;;;;;;-4.97;96.30;99250.16;10437894;28;20632;-67
2023/12/30 09:50:27;;;;;;;2.13;0.90;;;;;;;-4.92;95.62;99252.19;10422823;28;20025;-66
2023/12/30 09:55:31;;;;;;;1.27;1.00;;;;;;;-4.99;95.13;99249.56;10435167;28;20497;-69
2023/12/30 10:00:34;;;;;;;4.38;2.20;;;;;;;-4.97;95.18;99254.69;10413363;28;20041;-65
2023/12/30 10:05:38;;;;;;;5.55;1.25;;;;;;;-4.91;95.03;99248.47;10440764;28;20053;-68
2023/12/30 10:10:49;;;;;;;1.90;1.20;;;;;;;-5.04;94.86;99251.22;10438381;28;20033;-68
2023/12/30 10:15:52;;;;;;;1.17;0.95;;;;;;;-5.04;95.43;99280.63;10432749;28;20041;-66
2023/12/30 10:20:59;;;;;;;1.95;1.45;;;;;;;-5.11;95.74;99247.78;10414597;28;20029;-66
2023/12/30 10:26:03;;;;;;;7.30;2.47;;;;;;;-5.20;96.15;99266.75;10439518;28;20500;-66
2023/12/30 10:31:06;;;;;;;7.15;3.47;;;;;;;-5.23;96.49;99264.47;10438836;28;20536;-68
2023/12/30 10:36:09;;;;;;;8.13;3.17;;;;;;;-5.20;96.13;99268.59;10439328;28;20037;-67
2023/12/30 10:41:12;;;;;;;9.10;4.10;;;;;;;-5.24;95.96;99283.41;10430569;28;20041;-66
2023/12/30 10:46:18;;;;;;;2.85;1.13;;;;;;;-5.28;95.75;99268.84;10429335;28;20053;-66
2023/12/30 10:51:27;;;;;;;2.53;1.20;;;;;;;-5.31;95.52;99291.47;10434447;28;20034;-66
2023/12/30 10:56:31;;;;;;;5.05;2.78;;;;;;;-5.32;95.91;99287.16;10417548;28;20045;-65
2023/12/30 11:01:35;;;;;;;5.93;3.35;;;;;;;-5.31;94.96;99304.84;10426268;28;20409;-66
2023/12/30 11:06:56;;;;;;;7.28;2.97;;;;;;;-5.32;94.14;99289.00;10416608;28;20052;-66
2023/12/30 11:12:02;;;;;;;2.35;1.63;;;;;;;-5.30;93.59;99308.31;10420641;28;20049;-66
2023/12/30 11:17:04;;;;;;;5.18;2.95;;;;;;;-5.26;93.59;99309.53;10415695;28;20053;-67
2023/12/30 11:22:07;;;;;;;6.55;2.85;;;;;;;-5.29;93.06;99310.78;10429092;28;20212;-67
2023/12/30 11:27:10;;;;;;;6.25;2.72;;;;;;;-5.26;93.20;99288.16;10415133;28;20046;-67
2023/12/30 11:32:16;;;;;;;2.67;1.50;;;;;;;-5.24;92.80;99305.63;10416441;28;20041;-66
2023/12/30 11:37:19;;;;;;;6.07;2.58;;;;;;;-5.21;92.84;99325.75;10419311;28;20429;-65
2023/12/30 11:42:21;;;;;;;3.15;1.67;;;;;;;-5.34;92.11;99318.63;10394071;28;20413;-65
2023/12/30 11:47:25;;;;;;;7.10;3.40;;;;;;;-5.29;92.62;99308.13;10413490;28;20049;-67
2023/12/30 11:52:28;;;;;;;5.97;2.90;;;;;;;-5.31;92.00;99306.69;10415125;28;20757;-66
2023/12/30 11:57:33;;;;;;;3.65;1.88;;;;;;;-5.40;92.25;99316.78;10426177;28;20049;-66
2023/12/30 12:02:35;;;;;;;5.38;1.90;;;;;;;-5.40;92.02;99313.28;10423495;28;20040;-66
2023/12/30 12:07:38;;;;;;;5.50;2.78;;;;;;;-5.41;92.28;99314.31;10429295;28;20041;-66
2023/12/30 12:12:48;;;;;;;4.10;2.40;;;;;;;-5.46;92.31;99314.97;10434199;28;20037;-67
2023/12/30 12:17:51;;;;;;;5.32;2.88;;;;;;;-5.42;92.01;99307.31;10466215;28;20048;-67
2023/12/30 12:22:54;;;;;;;4.10;2.15;;;;;;;-5.42;91.78;99307.31;10451280;28;20033;-67
2023/12/30 12:27:56;;;;;;;4.93;2.58;;;;;;;-5.36;91.70;99335.91;10416697;28;20517;-68
2023/12/30 12:32:59;;;;;;;3.22;1.98;;;;;;;-5.38;91.57;99349.50;10408603;28;20535;-68
2023/12/30 12:38:02;;;;;;;3.35;2.05;;;;;;;-5.37;91.70;99327.06;10439097;28;20037;-68
2023/12/30 12:43:04;;;;;;;3.33;2.30;;;;;;;-5.42;91.92;99315.34;10403986;28;20042;-68
2023/12/30 12:48:07;;;;;;;2.40;1.50;;;;;;;-5.35;91.99;99329.53;10402125;28;20430;-67
2023/12/30 12:53:11;;;;;;;4.25;2.28;;;;;;;-5.42;92.40;99318.84;10413406;28;20057;-68
2023/12/30 12:58:13;;;;;;;3.13;1.73;;;;;;;-5.38;91.95;99317.41;10469809;28;20048;-66
2023/12/30 13:03:15;;;;;;;2.08;1.35;;;;;;;-5.38;92.30;99329.94;10446927;28;20041;-67
2023/12/30 13:08:18;;;;;;;2.15;1.38;;;;;;;-5.39;92.83;99336.31;10441674;28;20037;-67
2023/12/30 13:13:21;;;;;;;4.13;2.25;;;;;;;-5.48;93.23;99343.75;10417129;28;20052;-66
2023/12/30 13:18:23;;;;;;;2.80;2.20;;;;;;;-5.42;92.99;99340.22;10433516;28;20531;-67
2023/12/30 13:23:25;;;;;;;2.78;1.95;;;;;;;-5.42;93.85;99334.88;10427145;28;20734;-68
2023/12/30 13:28:28;;;;;;;3.08;1.50;;;;;;;-5.51;93.33;99361.03;10424393;28;20049;-68
2023/12/30 13:33:34;;;;;;;2.80;1.70;;;;;;;-5.52;93.41;99353.22;10427930;28;20476;-68
2023/12/30 13:38:40;;;;;;;2.67;1.90;;;;;;;-5.51;93.80;99362.88;10429826;28;20528;-67
2023/12/30 13:43:43;;;;;;;2.92;1.73;;;;;;;-5.57;93.42;99342.31;10442298;28;20052;-67
2023/12/30 13:54:20;;;;;;;2.15;1.65;;;;;;;-5.59;93.56;99350.53;10446464;28;20041;-67
2023/12/30 13:59:23;;;;;;;2.58;1.70;;;;;;;-5.61;93.67;99365.97;10427930;28;20049;-69
2023/12/30 14:04:26;;;;;;;1.52;1.30;;;;;;;-5.60;93.30;99393.50;10442302;28;20052;-68
2023/12/30 14:09:44;;;;;;;2.25;1.52;;;;;;;-5.59;93.63;99384.47;10417024;28;20037;-69
2023/12/30 14:14:53;;;;;;;2.05;1.48;;;;;;;-5.65;93.21;99386.13;10437956;28;20041;-70
2023/12/30 14:19:57;;;;;;;2.63;1.20;;;;;;;-5.63;93.52;99385.91;10432651;28;20045;-70
2023/12/30 14:25:00;;;;;;;1.67;1.25;;;;;;;-5.68;93.33;99391.06;10438282;28;20049;-70
2023/12/30 14:30:05;;;;;;;1.20;1.00;;;;;;;-5.69;92.82;99365.38;10442355;28;20037;-69
2023/12/30 14:35:09;;;;;;;1.73;1.40;;;;;;;-5.72;92.75;99400.53;10454953;28;20040;-70
2023/12/30 14:40:11;;;;;;;2.13;1.75;;;;;;;-5.62;92.74;99387.56;10445465;28;20041;-70
2023/12/30 14:45:14;;;;;;;1.80;1.17;;;;;;;-5.71;92.30;99394.16;10442939;28;20433;-69
2023/12/30 14:50:17;;;;;;;1.73;1.52;;;;;;;-5.69;92.45;99411.63;10427224;28;20042;-70
2023/12/30 14:55:19;;;;;;;2.33;1.55;;;;;;;-5.66;91.35;99389.81;10412607;28;20038;-69
2023/12/30 15:00:24;;;;;;;2.03;1.70;;;;;;;-5.68;92.00;99391.06;10439750;28;20049;-71
2023/12/30 15:05:26;;;;;;;1.80;1.40;;;;;;;-5.74;91.98;99386.53;10429964;28;20430;-70
2023/12/30 15:10:30;;;;;;;2.13;1.33;;;;;;;-5.74;92.29;99397.22;10434370;28;20064;-71
2023/12/30 15:15:32;;;;;;;1.13;0.88;;;;;;;-5.70;92.00;99388.59;10429622;28;20465;-69
2023/12/30 15:20:34;;;;;;;1.63;1.23;;;;;;;-5.78;91.90;99389.63;10439621;28;20044;-68
2023/12/30 15:25:38;;;;;;;1.60;1.42;;;;;;;-5.86;92.65;99424.56;10434947;28;20083;-70
2023/12/30 15:30:41;;;;;;;1.98;1.30;;;;;;;-5.84;92.89;99403.81;10432034;28;20044;-69
2023/12/30 15:35:44;;;;;;;1.48;1.30;;;;;;;-5.96;93.11;99440.19;10431707;28;20045;-70
2023/12/30 15:40:47;;;;;;;1.88;1.50;;;;;;;-5.90;93.20;99410.00;10445022;28;20037;-73
2023/12/30 15:45:49;;;;;;;1.23;1.10;;;;;;;-5.87;93.21;99408.75;10420261;28;20053;-69
2023/12/30 15:50:52;;;;;;;2.53;1.55;;;;;;;-5.95;93.11;99433.00;10430161;28;20037;-68
2023/12/30 15:55:55;;;;;;;2.15;1.70;;;;;;;-6.05;93.37;99417.38;10400837;28;20456;-69
2023/12/30 16:00:57;;;;;;;1.63;1.20;;;;;;;-6.01;93.35;99421.28;10434302;28;20034;-67
2023/12/30 16:05:59;;;;;;;1.67;1.23;;;;;;;-5.99;93.13;99418.41;10442242;28;20048;-68
2023/12/30 16:11:03;;;;;;;1.35;1.02;;;;;;;-6.08;94.01;99439.13;10438330;28;20029;-68
2023/12/30 16:16:05;;;;;;;2.05;1.70;;;;;;;-6.14;93.75;99453.31;10441746;28;20037;-68
2023/12/30 16:21:08;;;;;;;1.67;1.48;;;;;;;-6.24;94.46;99451.03;10427960;28;20525;-68
2023/12/30 16:26:10;;;;;;;2.83;1.45;;;;;;;-6.26;93.38;99452.22;10437718;28;20035;-68
2023/12/30 16:31:13;;;;;;;2.17;1.83;;;;;;;-6.25;93.37;99456.56;10445328;28;20501;-68
2023/12/30 16:36:16;;;;;;;2.33;1.52;;;;;;;-6.34;93.13;99439.09;10434994;28;20033;-69
2023/12/30 16:41:18;;;;;;;2.58;1.63;;;;;;;-6.31;93.66;99444.03;10375782;28;20034;-69
2023/12/30 16:46:20;;;;;;;2.22;2.03;;;;;;;-6.40;92.80;99467.41;10435138;28;20410;-68
2023/12/30 16:51:23;;;;;;;3.25;2.47;;;;;;;-6.39;92.68;99499.22;10436687;28;20555;-68
2023/12/30 16:56:25;;;;;;;2.15;1.73;;;;;;;-6.44;92.56;99452.81;10433109;28;20406;-68
2023/12/30 17:01:28;;;;;;;2.08;1.60;;;;;;;-6.50;91.64;99451.75;10414468;28;20052;-68
2023/12/30 17:06:32;;;;;;;1.70;1.30;;;;;;;-6.50;90.71;99457.09;10409671;28;20037;-67
2023/12/30 17:11:39;;;;;;;2.00;1.80;;;;;;;-6.60;91.15;99502.00;10415906;28;20410;-67
2023/12/30 17:16:41;;;;;;;2.00;1.80;;;;;;;-6.56;91.48;99473.09;10409140;28;20538;-68
2023/12/30 17:21:43;;;;;;;2.15;1.80;;;;;;;-6.52;91.34;99477.00;10435179;28;20041;-68
2023/12/30 17:26:46;;;;;;;2.08;1.80;;;;;;;-6.61;90.88;99495.00;10428216;28;20044;-68
2023/12/30 17:31:48;;;;;;;2.47;1.83;;;;;;;-6.51;91.06;99497.31;10429208;28;20038;-69
2023/12/30 17:36:53;;;;;;;3.35;2.20;;;;;;;-6.61;91.61;99491.53;10426551;28;20046;-69
2023/12/30 17:42:00;;;;;;;3.47;2.10;;;;;;;-6.57;92.32;99484.78;10421963;28;20041;-69
2023/12/30 17:47:03;;;;;;;2.92;1.90;;;;;;;-6.59;91.31;99511.69;10439607;28;20064;-69
2023/12/30 17:52:05;;;;;;;2.20;2.00;;;;;;;-6.69;91.54;99508.53;10425959;28;20029;-69
2023/12/30 17:57:07;;;;;;;2.63;2.42;;;;;;;-6.71;92.34;99526.59;10425364;28;20932;-68
2023/12/30 18:02:10;;;;;;;2.00;1.65;;;;;;;-6.81;92.10;99512.75;10439540;28;20041;-69
2023/12/30 18:07:14;;;;;;;2.47;2.15;;;;;;;-6.83;92.74;99522.81;10420421;28;20078;-68
2023/12/30 18:12:17;;;;;;;2.55;2.22;;;;;;;-6.89;92.31;99550.28;10410103;28;20057;-68
2023/12/30 18:17:22;;;;;;;3.45;2.08;;;;;;;-6.80;93.26;99523.22;10415184;28;20045;-68
2023/12/30 18:22:25;;;;;;;3.22;2.28;;;;;;;-6.83;92.67;99530.81;10435679;28;20033;-68
2023/12/30 18:27:27;;;;;;;2.58;1.75;;;;;;;-6.81;92.67;99537.59;10428990;28;20045;-69
2023/12/30 18:32:29;;;;;;;3.60;2.10;;;;;;;-6.95;92.64;99577.69;10432737;28;20037;-70
2023/12/30 18:37:32;;;;;;;2.58;2.05;;;;;;;-7.20;92.59;99566.66;10417535;28;20037;-70
2023/12/30 18:42:34;;;;;;;3.05;2.03;;;;;;;-7.21;93.68;99544.50;10437324;28;20037;-67
2023/12/30 18:47:37;;;;;;;2.97;2.10;;;;;;;-7.16;93.45;99547.41;10434091;28;20053;-70
2023/12/30 18:52:41;;;;;;;2.67;2.20;;;;;;;-7.27;93.67;99574.59;10434117;28;20045;-68
2023/12/30 18:57:44;;;;;;;3.22;2.30;;;;;;;-7.27;94.11;99563.13;10420354;28;20045;-70
2023/12/30 19:02:47;;;;;;;2.58;2.10;;;;;;;-7.30;94.20;99570.44;10425317;28;20038;-68
2023/12/30 19:07:51;;;;;;;3.35;2.10;;;;;;;-7.28;94.57;99556.97;10419471;28;20037;-69
2023/12/30 19:12:56;;;;;;;2.60;2.40;;;;;;;-7.34;93.89;99569.19;10443057;28;20040;-69
2023/12/30 19:17:59;;;;;;;3.03;2.30;;;;;;;-7.40;93.99;99564.66;10434314;28;20045;-69
2023/12/30 19:23:03;;;;;;;3.15;2.30;;;;;;;-7.37;94.20;99579.41;10437639;28;20044;-70
2023/12/30 19:28:06;;;;;;;3.88;3.33;;;;;;;-7.28;94.19;99588.94;10444948;28;20394;-70
2023/12/30 19:33:09;;;;;;;2.85;2.05;;;;;;;-7.30;93.70;99577.63;10418332;28;20035;-70
2023/12/30 19:38:13;;;;;;;3.33;2.85;;;;;;;-7.38;93.49;99593.75;10430271;28;20546;-69
2023/12/30 19:43:16;;;;;;;3.35;2.10;;;;;;;-7.36;94.58;99589.06;10417802;28;20041;-70
2023/12/30 19:48:19;;;;;;;3.47;2.35;;;;;;;-7.31;94.15;99608.78;10430714;28;20053;-68
2023/12/30 19:53:22;;;;;;;3.15;2.60;;;;;;;-7.35;94.59;99634.16;10422533;28;20038;-69
2023/12/30 19:58:26;;;;;;;4.20;2.40;;;;;;;-7.33;94.72;99620.66;10442995;28;20037;-68
2023/12/30 20:03:29;;;;;;;2.40;1.92;;;;;;;-7.41;95.43;99644.78;10446612;28;20041;-70
2023/12/30 20:08:31;;;;;;;3.30;2.60;;;;;;;-7.30;96.02;99629.09;10421358;28;20045;-72
2023/12/30 20:13:34;;;;;;;3.53;2.72;;;;;;;-7.30;95.63;99636.25;10429952;28;20033;-72
2023/12/30 20:18:39;;;;;;;3.20;1.95;;;;;;;-7.28;95.94;99633.44;10445045;28;20041;-72
2023/12/30 20:23:42;;;;;;;2.88;2.63;;;;;;;-7.21;95.88;99651.13;10433664;28;20393;-69
2023/12/30 20:28:45;;;;;;;2.28;1.85;;;;;;;-7.18;95.56;99634.72;10441994;28;20421;-70
2023/12/30 20:33:47;;;;;;;3.85;3.08;;;;;;;-7.11;94.93;99646.31;10438595;28;20037;-70
2023/12/30 20:38:51;;;;;;;2.92;2.35;;;;;;;-7.09;95.60;99656.78;10429832;28;20457;-68
2023/12/30 20:43:54;;;;;;;2.75;2.17;;;;;;;-7.07;95.58;99660.06;10432733;28;20041;-71
2023/12/30 20:49:03;;;;;;;3.50;2.55;;;;;;;-7.00;95.38;99676.94;10420045;28;20037;-71
2023/12/30 20:54:05;;;;;;;2.58;2.22;;;;;;;-6.99;94.88;99679.41;10426190;28;20041;-68
2023/12/30 20:59:08;;;;;;;3.25;2.28;;;;;;;-7.04;94.90;99694.34;10437839;28;20064;-69
2023/12/30 21:04:10;;;;;;;3.28;2.20;;;;;;;-7.04;95.17;99689.84;10433312;28;20422;-70
2023/12/30 21:09:14;;;;;;;4.18;3.03;;;;;;;-7.05;95.08;99685.53;10429850;28;20502;-70
2023/12/30 21:14:16;;;;;;;3.33;2.65;;;;;;;-7.09;94.36;99691.44;10433638;28;20033;-69
2023/12/30 21:19:18;;;;;;;2.30;2.10;;;;;;;-7.11;94.71;99696.13;10428934;28;20052;-70
2023/12/30 21:24:21;;;;;;;4.57;2.92;;;;;;;-7.06;95.01;99720.38;10431690;28;20046;-69
2023/12/30 21:29:24;;;;;;;4.47;2.75;;;;;;;-7.00;94.52;99719.59;10419267;28;20038;-69
2023/12/30 21:34:26;;;;;;;3.15;2.60;;;;;;;-7.12;94.41;99723.78;10431320;28;22122;-70
2023/12/30 21:39:29;;;;;;;2.50;1.95;;;;;;;-7.25;93.84;99729.81;10425216;28;20532;-70
2023/12/30 21:44:31;;;;;;;2.97;2.42;;;;;;;-7.25;93.56;99734.31;10436532;28;20049;-71
2023/12/30 21:49:37;;;;;;;2.42;1.90;;;;;;;-7.25;93.80;99740.47;10435151;28;20052;-71
2023/12/30 21:54:44;;;;;;;2.47;2.15;;;;;;;-7.23;93.99;99745.63;10441667;28;20041;-70
2023/12/30 21:59:46;;;;;;;2.38;1.45;;;;;;;-7.23;93.72;99730.44;10424091;28;20416;-70
2023/12/30 22:04:48;;;;;;;2.30;1.80;;;;;;;-7.16;93.89;99744.66;10436439;28;20041;-70
2023/12/30 22:09:51;;;;;;;2.85;1.90;;;;;;;-7.18;93.92;99743.19;10427826;28;20030;-70
2023/12/30 22:14:54;;;;;;;2.63;2.03;;;;;;;-7.18;94.05;99745.88;10428991;28;20042;-71
2023/12/30 22:19:58;;;;;;;3.00;2.70;;;;;;;-7.27;93.27;99747.84;10423579;28;20034;-71
2023/12/30 22:25:02;;;;;;;1.63;1.33;;;;;;;-7.22;93.89;99761.41;10427815;28;20045;-69
2023/12/30 22:30:07;;;;;;;1.73;1.33;;;;;;;-7.11;93.22;99755.59;10421175;28;20428;-71
2023/12/30 22:35:16;;;;;;;3.40;2.00;;;;;;;-7.10;93.30;99764.44;10433189;28;20038;-69
2023/12/30 22:40:18;;;;;;;2.70;2.15;;;;;;;-7.04;92.26;99775.16;10419592;28;20045;-71
2023/12/30 22:45:20;;;;;;;2.97;1.83;;;;;;;-6.96;91.94;99776.84;10419631;28;20053;-69
2023/12/30 22:50:23;;;;;;;2.92;1.40;;;;;;;-6.91;91.62;99787.81;10422339;28;20410;-69
2023/12/30 22:55:25;;;;;;;2.38;1.38;;;;;;;-6.87;91.76;99788.25;10406888;28;20037;-69
2023/12/30 23:00:27;;;;;;;1.95;1.27;;;;;;;-6.82;92.12;99781.31;10424191;28;20037;-69
2023/12/30 23:05:30;;;;;;;1.95;1.55;;;;;;;-6.80;91.76;99792.63;10414395;28;20037;-69
2023/12/30 23:10:32;;;;;;;3.10;1.90;;;;;;;-6.85;91.12;99804.88;10428710;28;20041;-70
2023/12/30 23:15:35;;;;;;;2.63;1.60;;;;;;;-6.89;90.43;99804.44;10418328;28;20037;-69
2023/12/30 23:20:38;;;;;;;2.88;1.90;;;;;;;-6.83;89.69;99818.84;10420188;28;20041;-69
2023/12/30 23:25:40;;;;;;;1.85;1.55;;;;;;;-6.73;89.75;99825.53;10415530;28;20593;-69
2023/12/30 23:30:42;;;;;;;3.38;1.70;;;;;;;-6.70;89.50;99824.34;10424727;28;20075;-69
2023/12/30 23:35:45;;;;;;;3.42;1.45;;;;;;;-6.77;89.26;99842.09;10428328;28;20042;-69